sensor_id;sensor_type;location;lat;lon;timestamp;temperature;humidity
20376;DHT22;10347;51.828;6.466;2024-01-15T00:02:17;3.80;99.90
20376;DHT22;10347;51.828;6.466;2024-01-15T00:04:43;3.80;99.90
20376;DHT22;10347;51.828;6.466;2024-01-15T00:07:09;3.80;99.90
20376;DHT22;10347;51.828;6.466;2024-01-15T00:09:35;3.80;99.90
20376;DHT22;10347;51.828;6.466;2024-01-15T00:12:01;3.80;99.90
20376;DHT22;10347;51.828;6.466;2024-01-15T00:14:27;3.80;99.90
20376;DHT22;10347;51.828;6.466;2024-01-15T00:16:53;3.90;99.90
20376;DHT22;10347;51.828;6.466;2024-01-15T00:19:21;3.90;99.90
20376;DHT22;10347;51.828;6.466;2024-01-15T00:21:46;3.90;99.90
20376;DHT22;10347;51.828;6.466;2024-01-15T00:24:12;3.90;99.90
20376;DHT22;10347;51.828;6.466;2024-01-15T00:26:37;3.90;99.90
20376;DHT22;10347;51.828;6.466;2024-01-15T00:29:03;3.80;99.90
20376;DHT22;10347;51.828;6.466;2024-01-15T00:31:29;3.80;99.90
20376;DHT22;10347;51.828;6.466;2024-01-15T00:33:56;3.80;99.90
20376;DHT22;10347;51.828;6.466;2024-01-15T00:36:21;3.80;99.90
20376;DHT22;10347;51.828;6.466;2024-01-15T00:38:47;3.80;99.90
20376;DHT22;10347;51.828;6.466;2024-01-15T00:41:14;3.80;99.90
20376;DHT22;10347;51.828;6.466;2024-01-15T00:43:39;3.80;99.90
20376;DHT22;10347;51.828;6.466;2024-01-15T00:46:05;3.80;99.90
20376;DHT22;10347;51.828;6.466;2024-01-15T00:48:32;3.80;99.90
20376;DHT22;10347;51.828;6.466;2024-01-15T00:50:57;3.80;99.90
20376;DHT22;10347;51.828;6.466;2024-01-15T00:53:23;3.80;99.90
20376;DHT22;10347;51.828;6.466;2024-01-15T00:55:49;3.70;99.90
20376;DHT22;10347;51.828;6.466;2024-01-15T00:58:14;3.80;99.90
20376;DHT22;10347;51.828;6.466;2024-01-15T01:00:41;3.80;99.90
20376;DHT22;10347;51.828;6.466;2024-01-15T01:03:07;3.70;99.90
20376;DHT22;10347;51.828;6.466;2024-01-15T01:05:35;3.70;99.90
20376;DHT22;10347;51.828;6.466;2024-01-15T01:08:01;3.70;99.90
20376;DHT22;10347;51.828;6.466;2024-01-15T01:10:27;3.70;99.90
20376;DHT22;10347;51.828;6.466;2024-01-15T01:12:53;3.70;99.90
20376;DHT22;10347;51.828;6.466;2024-01-15T01:15:18;3.70;99.90
20376;DHT22;10347;51.828;6.466;2024-01-15T01:17:44;3.70;99.90
20376;DHT22;10347;51.828;6.466;2024-01-15T01:20:09;3.70;99.90
20376;DHT22;10347;51.828;6.466;2024-01-15T01:22:36;3.70;99.90
20376;DHT22;10347;51.828;6.466;2024-01-15T01:25:01;3.70;99.90
20376;DHT22;10347;51.828;6.466;2024-01-15T01:27:27;3.70;99.90
20376;DHT22;10347;51.828;6.466;2024-01-15T01:29:53;3.70;99.90
20376;DHT22;10347;51.828;6.466;2024-01-15T01:32:19;3.60;99.90
20376;DHT22;10347;51.828;6.466;2024-01-15T01:34:45;3.60;99.90
20376;DHT22;10347;51.828;6.466;2024-01-15T01:37:11;3.60;99.90
20376;DHT22;10347;51.828;6.466;2024-01-15T01:39:40;3.50;99.90
20376;DHT22;10347;51.828;6.466;2024-01-15T01:42:06;3.50;99.90
20376;DHT22;10347;51.828;6.466;2024-01-15T01:44:31;3.50;99.90
20376;DHT22;10347;51.828;6.466;2024-01-15T01:46:59;3.50;99.90
20376;DHT22;10347;51.828;6.466;2024-01-15T01:49:25;3.50;99.90
20376;DHT22;10347;51.828;6.466;2024-01-15T01:51:51;3.60;99.90
20376;DHT22;10347;51.828;6.466;2024-01-15T01:54:19;3.60;99.90
20376;DHT22;10347;51.828;6.466;2024-01-15T01:56:45;3.60;99.90
20376;DHT22;10347;51.828;6.466;2024-01-15T01:59:12;3.60;99.90
20376;DHT22;10347;51.828;6.466;2024-01-15T02:01:39;3.70;99.90
20376;DHT22;10347;51.828;6.466;2024-01-15T02:04:05;3.70;99.90
20376;DHT22;10347;51.828;6.466;2024-01-15T02:06:31;3.70;99.90
20376;DHT22;10347;51.828;6.466;2024-01-15T02:08:57;3.60;99.90
20376;DHT22;10347;51.828;6.466;2024-01-15T02:11:23;3.60;99.90
20376;DHT22;10347;51.828;6.466;2024-01-15T02:13:48;3.60;99.90
20376;DHT22;10347;51.828;6.466;2024-01-15T02:16:14;3.60;99.90
20376;DHT22;10347;51.828;6.466;2024-01-15T02:18:41;3.60;99.90
20376;DHT22;10347;51.828;6.466;2024-01-15T02:21:07;3.60;99.90
20376;DHT22;10347;51.828;6.466;2024-01-15T02:23:32;3.50;99.90
20376;DHT22;10347;51.828;6.466;2024-01-15T02:25:58;3.50;99.90
20376;DHT22;10347;51.828;6.466;2024-01-15T02:28:24;3.50;99.90
20376;DHT22;10347;51.828;6.466;2024-01-15T02:30:49;3.50;99.90
20376;DHT22;10347;51.828;6.466;2024-01-15T02:33:15;3.50;99.90
20376;DHT22;10347;51.828;6.466;2024-01-15T02:35:40;3.50;99.90
20376;DHT22;10347;51.828;6.466;2024-01-15T02:38:07;3.50;99.90
20376;DHT22;10347;51.828;6.466;2024-01-15T02:40:33;3.50;99.90
20376;DHT22;10347;51.828;6.466;2024-01-15T02:42:59;3.50;99.90
20376;DHT22;10347;51.828;6.466;2024-01-15T02:45:25;3.50;99.90
20376;DHT22;10347;51.828;6.466;2024-01-15T02:47:50;3.50;99.90
20376;DHT22;10347;51.828;6.466;2024-01-15T02:50:16;3.50;99.90
20376;DHT22;10347;51.828;6.466;2024-01-15T02:52:42;3.50;99.90
20376;DHT22;10347;51.828;6.466;2024-01-15T02:55:08;3.50;99.90
20376;DHT22;10347;51.828;6.466;2024-01-15T02:57:33;3.50;99.90
20376;DHT22;10347;51.828;6.466;2024-01-15T02:59:59;3.50;99.90
20376;DHT22;10347;51.828;6.466;2024-01-15T03:02:25;3.50;99.90
20376;DHT22;10347;51.828;6.466;2024-01-15T03:04:50;3.50;99.90
20376;DHT22;10347;51.828;6.466;2024-01-15T03:07:16;3.50;99.90
20376;DHT22;10347;51.828;6.466;2024-01-15T03:09:41;3.50;99.90
20376;DHT22;10347;51.828;6.466;2024-01-15T03:12:07;3.50;99.90
20376;DHT22;10347;51.828;6.466;2024-01-15T03:14:33;3.50;99.90
20376;DHT22;10347;51.828;6.466;2024-01-15T03:16:59;3.50;99.90
20376;DHT22;10347;51.828;6.466;2024-01-15T03:19:26;3.50;99.90
20376;DHT22;10347;51.828;6.466;2024-01-15T03:21:51;3.50;99.90
20376;DHT22;10347;51.828;6.466;2024-01-15T03:24:17;3.50;99.90
20376;DHT22;10347;51.828;6.466;2024-01-15T03:26:43;3.50;99.90
20376;DHT22;10347;51.828;6.466;2024-01-15T03:29:08;3.50;99.90
20376;DHT22;10347;51.828;6.466;2024-01-15T03:31:34;3.50;99.90
20376;DHT22;10347;51.828;6.466;2024-01-15T03:34:00;3.50;99.90
20376;DHT22;10347;51.828;6.466;2024-01-15T03:36:25;3.40;99.90
20376;DHT22;10347;51.828;6.466;2024-01-15T03:38:51;3.40;99.90
20376;DHT22;10347;51.828;6.466;2024-01-15T03:41:16;3.30;99.90
20376;DHT22;10347;51.828;6.466;2024-01-15T03:43:42;3.30;99.90
20376;DHT22;10347;51.828;6.466;2024-01-15T03:46:07;3.40;99.90
20376;DHT22;10347;51.828;6.466;2024-01-15T03:48:33;3.40;99.90
20376;DHT22;10347;51.828;6.466;2024-01-15T03:50:59;3.40;99.90
20376;DHT22;10347;51.828;6.466;2024-01-15T03:53:24;3.40;99.90
20376;DHT22;10347;51.828;6.466;2024-01-15T03:55:50;3.40;99.90
20376;DHT22;10347;51.828;6.466;2024-01-15T03:58:16;3.40;99.90
20376;DHT22;10347;51.828;6.466;2024-01-15T04:00:42;3.40;99.90
20376;DHT22;10347;51.828;6.466;2024-01-15T04:03:07;3.40;99.90
20376;DHT22;10347;51.828;6.466;2024-01-15T04:05:33;3.40;99.90
20376;DHT22;10347;51.828;6.466;2024-01-15T04:07:58;3.40;99.90
20376;DHT22;10347;51.828;6.466;2024-01-15T04:10:24;3.40;99.90
20376;DHT22;10347;51.828;6.466;2024-01-15T04:12:49;3.40;99.90
20376;DHT22;10347;51.828;6.466;2024-01-15T04:15:15;3.40;99.90
20376;DHT22;10347;51.828;6.466;2024-01-15T04:17:40;3.40;99.90
20376;DHT22;10347;51.828;6.466;2024-01-15T04:20:07;3.40;99.90
20376;DHT22;10347;51.828;6.466;2024-01-15T04:22:34;3.50;99.90
20376;DHT22;10347;51.828;6.466;2024-01-15T04:25:00;3.50;99.90
20376;DHT22;10347;51.828;6.466;2024-01-15T04:27:25;3.40;99.90
20376;DHT22;10347;51.828;6.466;2024-01-15T04:29:51;3.40;99.90
20376;DHT22;10347;51.828;6.466;2024-01-15T04:32:16;3.40;99.90
20376;DHT22;10347;51.828;6.466;2024-01-15T04:34:42;3.40;99.90
20376;DHT22;10347;51.828;6.466;2024-01-15T04:37:07;3.40;99.90
20376;DHT22;10347;51.828;6.466;2024-01-15T04:39:33;3.40;99.90
20376;DHT22;10347;51.828;6.466;2024-01-15T04:41:58;3.30;99.90
20376;DHT22;10347;51.828;6.466;2024-01-15T04:44:24;3.30;99.90
20376;DHT22;10347;51.828;6.466;2024-01-15T04:46:49;3.30;99.90
20376;DHT22;10347;51.828;6.466;2024-01-15T04:49:15;3.30;99.90
20376;DHT22;10347;51.828;6.466;2024-01-15T04:51:40;3.30;99.90
20376;DHT22;10347;51.828;6.466;2024-01-15T04:54:06;3.30;99.90
20376;DHT22;10347;51.828;6.466;2024-01-15T04:56:31;3.40;99.90
20376;DHT22;10347;51.828;6.466;2024-01-15T04:58:57;3.40;99.90
20376;DHT22;10347;51.828;6.466;2024-01-15T05:01:22;3.40;99.90
20376;DHT22;10347;51.828;6.466;2024-01-15T05:03:48;3.40;99.90
20376;DHT22;10347;51.828;6.466;2024-01-15T05:06:14;3.40;99.90
20376;DHT22;10347;51.828;6.466;2024-01-15T05:08:40;3.40;99.90
20376;DHT22;10347;51.828;6.466;2024-01-15T05:11:05;3.40;99.90
20376;DHT22;10347;51.828;6.466;2024-01-15T05:13:31;3.40;99.90
20376;DHT22;10347;51.828;6.466;2024-01-15T05:15:57;3.40;99.90
20376;DHT22;10347;51.828;6.466;2024-01-15T05:18:22;3.40;99.90
20376;DHT22;10347;51.828;6.466;2024-01-15T05:20:48;3.40;99.90
20376;DHT22;10347;51.828;6.466;2024-01-15T05:23:13;3.40;99.90
20376;DHT22;10347;51.828;6.466;2024-01-15T05:25:39;3.40;99.90
20376;DHT22;10347;51.828;6.466;2024-01-15T05:28:05;3.40;99.90
20376;DHT22;10347;51.828;6.466;2024-01-15T05:30:31;3.40;99.90
20376;DHT22;10347;51.828;6.466;2024-01-15T05:32:56;3.40;99.90
20376;DHT22;10347;51.828;6.466;2024-01-15T05:35:23;3.30;99.90
20376;DHT22;10347;51.828;6.466;2024-01-15T05:37:49;3.40;99.90
20376;DHT22;10347;51.828;6.466;2024-01-15T05:40:14;3.40;99.90
20376;DHT22;10347;51.828;6.466;2024-01-15T05:42:41;3.40;99.90
20376;DHT22;10347;51.828;6.466;2024-01-15T05:45:07;3.30;99.90
20376;DHT22;10347;51.828;6.466;2024-01-15T05:47:33;3.30;99.90
20376;DHT22;10347;51.828;6.466;2024-01-15T05:50:00;3.30;99.90
20376;DHT22;10347;51.828;6.466;2024-01-15T05:52:25;3.30;99.90
20376;DHT22;10347;51.828;6.466;2024-01-15T05:54:51;3.30;99.90
20376;DHT22;10347;51.828;6.466;2024-01-15T05:57:17;3.30;99.90
20376;DHT22;10347;51.828;6.466;2024-01-15T05:59:44;3.30;99.90
20376;DHT22;10347;51.828;6.466;2024-01-15T06:02:09;3.30;99.90
20376;DHT22;10347;51.828;6.466;2024-01-15T06:04:35;3.30;99.90
20376;DHT22;10347;51.828;6.466;2024-01-15T06:07:01;3.30;99.90
20376;DHT22;10347;51.828;6.466;2024-01-15T06:09:26;3.30;99.90
20376;DHT22;10347;51.828;6.466;2024-01-15T06:11:53;3.30;99.90
20376;DHT22;10347;51.828;6.466;2024-01-15T06:14:18;3.30;99.90
20376;DHT22;10347;51.828;6.466;2024-01-15T06:16:44;3.20;99.90
20376;DHT22;10347;51.828;6.466;2024-01-15T06:19:09;3.30;99.90
20376;DHT22;10347;51.828;6.466;2024-01-15T06:21:35;3.20;99.90
20376;DHT22;10347;51.828;6.466;2024-01-15T06:24:01;3.20;99.90
20376;DHT22;10347;51.828;6.466;2024-01-15T06:26:26;3.20;99.90
20376;DHT22;10347;51.828;6.466;2024-01-15T06:28:52;3.20;99.90
20376;DHT22;10347;51.828;6.466;2024-01-15T06:31:17;3.20;99.90
20376;DHT22;10347;51.828;6.466;2024-01-15T06:33:43;3.10;99.90
20376;DHT22;10347;51.828;6.466;2024-01-15T06:36:08;3.20;99.90
20376;DHT22;10347;51.828;6.466;2024-01-15T06:38:34;3.20;99.90
20376;DHT22;10347;51.828;6.466;2024-01-15T06:40:59;3.20;99.90
20376;DHT22;10347;51.828;6.466;2024-01-15T06:43:25;3.20;99.90
20376;DHT22;10347;51.828;6.466;2024-01-15T06:45:51;3.10;99.90
20376;DHT22;10347;51.828;6.466;2024-01-15T06:48:16;3.20;99.90
20376;DHT22;10347;51.828;6.466;2024-01-15T06:50:42;3.30;99.90
20376;DHT22;10347;51.828;6.466;2024-01-15T06:53:08;3.30;99.90
20376;DHT22;10347;51.828;6.466;2024-01-15T06:55:34;3.30;99.90
20376;DHT22;10347;51.828;6.466;2024-01-15T06:57:59;3.30;99.90
20376;DHT22;10347;51.828;6.466;2024-01-15T07:00:25;3.20;99.90
20376;DHT22;10347;51.828;6.466;2024-01-15T07:02:51;3.20;99.90
20376;DHT22;10347;51.828;6.466;2024-01-15T07:05:17;3.20;99.90
20376;DHT22;10347;51.828;6.466;2024-01-15T07:07:43;3.20;99.90
20376;DHT22;10347;51.828;6.466;2024-01-15T07:10:08;3.20;99.90
20376;DHT22;10347;51.828;6.466;2024-01-15T07:12:34;3.20;99.90
20376;DHT22;10347;51.828;6.466;2024-01-15T07:15:00;3.20;99.90
20376;DHT22;10347;51.828;6.466;2024-01-15T07:17:25;3.20;99.90
20376;DHT22;10347;51.828;6.466;2024-01-15T07:19:51;3.20;99.90
20376;DHT22;10347;51.828;6.466;2024-01-15T07:22:16;3.20;99.90
20376;DHT22;10347;51.828;6.466;2024-01-15T07:24:43;3.20;99.90
20376;DHT22;10347;51.828;6.466;2024-01-15T07:27:08;3.20;99.90
20376;DHT22;10347;51.828;6.466;2024-01-15T07:29:34;3.20;99.90
20376;DHT22;10347;51.828;6.466;2024-01-15T07:32:03;3.20;99.90
20376;DHT22;10347;51.828;6.466;2024-01-15T07:34:29;3.20;99.90
20376;DHT22;10347;51.828;6.466;2024-01-15T07:36:54;3.20;99.90
20376;DHT22;10347;51.828;6.466;2024-01-15T07:39:20;3.20;99.90
20376;DHT22;10347;51.828;6.466;2024-01-15T07:41:45;3.20;99.90
20376;DHT22;10347;51.828;6.466;2024-01-15T07:44:11;3.20;99.90
20376;DHT22;10347;51.828;6.466;2024-01-15T07:46:36;3.20;99.90
20376;DHT22;10347;51.828;6.466;2024-01-15T07:49:02;3.20;99.90
20376;DHT22;10347;51.828;6.466;2024-01-15T07:51:28;3.30;99.90
20376;DHT22;10347;51.828;6.466;2024-01-15T07:53:54;3.30;99.90
20376;DHT22;10347;51.828;6.466;2024-01-15T07:56:21;3.30;99.90
20376;DHT22;10347;51.828;6.466;2024-01-15T07:58:47;3.30;99.90
20376;DHT22;10347;51.828;6.466;2024-01-15T08:01:12;3.30;99.90
20376;DHT22;10347;51.828;6.466;2024-01-15T08:03:38;3.40;99.90
20376;DHT22;10347;51.828;6.466;2024-01-15T08:06:04;3.40;99.90
20376;DHT22;10347;51.828;6.466;2024-01-15T08:08:30;3.40;99.90
20376;DHT22;10347;51.828;6.466;2024-01-15T08:10:56;3.40;99.90
20376;DHT22;10347;51.828;6.466;2024-01-15T08:13:21;3.40;99.90
20376;DHT22;10347;51.828;6.466;2024-01-15T08:15:47;3.40;99.90
20376;DHT22;10347;51.828;6.466;2024-01-15T08:18:12;3.40;99.90
20376;DHT22;10347;51.828;6.466;2024-01-15T08:20:38;3.40;99.90
20376;DHT22;10347;51.828;6.466;2024-01-15T08:23:04;3.40;99.90
20376;DHT22;10347;51.828;6.466;2024-01-15T08:25:30;3.40;99.90
20376;DHT22;10347;51.828;6.466;2024-01-15T08:27:56;3.30;99.90
20376;DHT22;10347;51.828;6.466;2024-01-15T08:30:23;3.30;99.90
20376;DHT22;10347;51.828;6.466;2024-01-15T08:32:53;3.30;99.90
20376;DHT22;10347;51.828;6.466;2024-01-15T08:35:18;3.30;99.90
20376;DHT22;10347;51.828;6.466;2024-01-15T08:37:51;3.30;99.90
20376;DHT22;10347;51.828;6.466;2024-01-15T08:40:17;3.30;99.90
20376;DHT22;10347;51.828;6.466;2024-01-15T08:42:43;3.30;99.90
20376;DHT22;10347;51.828;6.466;2024-01-15T08:45:09;3.30;99.90
20376;DHT22;10347;51.828;6.466;2024-01-15T08:47:35;3.30;99.90
20376;DHT22;10347;51.828;6.466;2024-01-15T08:50:01;3.30;99.90
20376;DHT22;10347;51.828;6.466;2024-01-15T08:52:27;3.30;99.90
20376;DHT22;10347;51.828;6.466;2024-01-15T08:54:52;3.30;99.90
20376;DHT22;10347;51.828;6.466;2024-01-15T08:57:18;3.30;99.90
20376;DHT22;10347;51.828;6.466;2024-01-15T08:59:43;3.20;99.90
20376;DHT22;10347;51.828;6.466;2024-01-15T09:02:10;3.20;99.90
20376;DHT22;10347;51.828;6.466;2024-01-15T09:04:35;3.20;99.90
20376;DHT22;10347;51.828;6.466;2024-01-15T09:07:01;3.30;99.90
20376;DHT22;10347;51.828;6.466;2024-01-15T09:09:27;3.30;99.90
20376;DHT22;10347;51.828;6.466;2024-01-15T09:11:53;3.30;99.90
20376;DHT22;10347;51.828;6.466;2024-01-15T09:14:18;3.30;99.90
20376;DHT22;10347;51.828;6.466;2024-01-15T09:16:44;3.20;99.90
20376;DHT22;10347;51.828;6.466;2024-01-15T09:19:10;3.20;99.90
20376;DHT22;10347;51.828;6.466;2024-01-15T09:21:38;3.20;99.90
20376;DHT22;10347;51.828;6.466;2024-01-15T09:24:04;3.20;99.90
20376;DHT22;10347;51.828;6.466;2024-01-15T09:26:29;3.10;99.90
20376;DHT22;10347;51.828;6.466;2024-01-15T09:28:55;3.10;99.90
20376;DHT22;10347;51.828;6.466;2024-01-15T09:31:20;3.10;99.90
20376;DHT22;10347;51.828;6.466;2024-01-15T09:33:47;3.10;99.90
20376;DHT22;10347;51.828;6.466;2024-01-15T09:36:12;3.20;99.90
20376;DHT22;10347;51.828;6.466;2024-01-15T09:38:40;3.20;99.90
20376;DHT22;10347;51.828;6.466;2024-01-15T09:41:06;3.30;99.90
20376;DHT22;10347;51.828;6.466;2024-01-15T09:43:32;3.30;99.90
20376;DHT22;10347;51.828;6.466;2024-01-15T09:45:57;3.30;99.90
20376;DHT22;10347;51.828;6.466;2024-01-15T09:48:23;3.20;99.90
20376;DHT22;10347;51.828;6.466;2024-01-15T09:50:52;3.30;99.90
20376;DHT22;10347;51.828;6.466;2024-01-15T09:53:18;3.30;99.90
20376;DHT22;10347;51.828;6.466;2024-01-15T09:55:44;3.30;99.90
20376;DHT22;10347;51.828;6.466;2024-01-15T09:58:10;3.30;99.90
20376;DHT22;10347;51.828;6.466;2024-01-15T10:00:36;3.40;99.90
20376;DHT22;10347;51.828;6.466;2024-01-15T10:03:05;3.40;99.90
20376;DHT22;10347;51.828;6.466;2024-01-15T10:05:31;3.40;99.90
20376;DHT22;10347;51.828;6.466;2024-01-15T10:07:59;3.40;99.90
20376;DHT22;10347;51.828;6.466;2024-01-15T10:10:25;3.40;99.90
20376;DHT22;10347;51.828;6.466;2024-01-15T10:12:51;3.40;99.90
20376;DHT22;10347;51.828;6.466;2024-01-15T10:15:17;3.40;99.90
20376;DHT22;10347;51.828;6.466;2024-01-15T10:17:43;3.40;99.90
20376;DHT22;10347;51.828;6.466;2024-01-15T10:20:10;3.40;99.90
20376;DHT22;10347;51.828;6.466;2024-01-15T10:22:40;3.50;99.90
20376;DHT22;10347;51.828;6.466;2024-01-15T10:25:06;3.50;99.90
20376;DHT22;10347;51.828;6.466;2024-01-15T10:27:32;3.40;99.90
20376;DHT22;10347;51.828;6.466;2024-01-15T10:30:00;3.40;99.90
20376;DHT22;10347;51.828;6.466;2024-01-15T10:32:27;3.40;99.90
20376;DHT22;10347;51.828;6.466;2024-01-15T10:34:53;3.40;99.90
20376;DHT22;10347;51.828;6.466;2024-01-15T10:37:19;3.50;99.90
20376;DHT22;10347;51.828;6.466;2024-01-15T10:39:46;3.50;99.90
20376;DHT22;10347;51.828;6.466;2024-01-15T10:42:12;3.60;99.90
20376;DHT22;10347;51.828;6.466;2024-01-15T10:44:38;3.60;99.90
20376;DHT22;10347;51.828;6.466;2024-01-15T10:47:04;3.60;99.90
20376;DHT22;10347;51.828;6.466;2024-01-15T10:49:29;3.70;99.90
20376;DHT22;10347;51.828;6.466;2024-01-15T10:51:56;3.70;99.90
20376;DHT22;10347;51.828;6.466;2024-01-15T10:54:23;3.70;99.90
20376;DHT22;10347;51.828;6.466;2024-01-15T10:56:50;3.70;99.90
20376;DHT22;10347;51.828;6.466;2024-01-15T10:59:17;3.70;99.90
20376;DHT22;10347;51.828;6.466;2024-01-15T11:01:45;3.70;99.90
20376;DHT22;10347;51.828;6.466;2024-01-15T11:04:12;3.70;99.90
20376;DHT22;10347;51.828;6.466;2024-01-15T11:06:49;3.70;99.90
20376;DHT22;10347;51.828;6.466;2024-01-15T11:09:15;3.70;99.90
20376;DHT22;10347;51.828;6.466;2024-01-15T11:11:47;3.70;99.90
20376;DHT22;10347;51.828;6.466;2024-01-15T11:17:04;3.70;99.90
20376;DHT22;10347;51.828;6.466;2024-01-15T11:25:03;3.80;99.90
20376;DHT22;10347;51.828;6.466;2024-01-15T11:27:46;3.80;99.90
20376;DHT22;10347;51.828;6.466;2024-01-15T11:30:16;3.90;99.90
20376;DHT22;10347;51.828;6.466;2024-01-15T11:32:42;3.90;99.90
20376;DHT22;10347;51.828;6.466;2024-01-15T11:35:09;3.90;99.90
20376;DHT22;10347;51.828;6.466;2024-01-15T11:40:35;4.00;99.90
20376;DHT22;10347;51.828;6.466;2024-01-15T11:43:03;4.00;99.90
20376;DHT22;10347;51.828;6.466;2024-01-15T11:45:30;4.00;99.90
20376;DHT22;10347;51.828;6.466;2024-01-15T11:50:24;3.90;99.90
20376;DHT22;10347;51.828;6.466;2024-01-15T11:53:00;3.90;99.90
20376;DHT22;10347;51.828;6.466;2024-01-15T11:55:30;3.90;99.90
20376;DHT22;10347;51.828;6.466;2024-01-15T11:58:01;3.90;99.90
20376;DHT22;10347;51.828;6.466;2024-01-15T12:00:27;3.80;99.90
20376;DHT22;10347;51.828;6.466;2024-01-15T12:02:53;3.80;99.90
20376;DHT22;10347;51.828;6.466;2024-01-15T12:05:20;3.80;99.90
20376;DHT22;10347;51.828;6.466;2024-01-15T12:07:47;3.90;99.90
20376;DHT22;10347;51.828;6.466;2024-01-15T12:10:20;3.90;99.90
20376;DHT22;10347;51.828;6.466;2024-01-15T12:15:15;3.90;99.90
20376;DHT22;10347;51.828;6.466;2024-01-15T12:17:41;3.90;99.90
20376;DHT22;10347;51.828;6.466;2024-01-15T12:20:07;4.00;99.90
20376;DHT22;10347;51.828;6.466;2024-01-15T12:22:32;4.00;99.90
20376;DHT22;10347;51.828;6.466;2024-01-15T12:24:58;4.00;99.90
20376;DHT22;10347;51.828;6.466;2024-01-15T12:27:24;4.00;99.90
20376;DHT22;10347;51.828;6.466;2024-01-15T12:29:50;4.00;99.90
20376;DHT22;10347;51.828;6.466;2024-01-15T12:32:19;4.00;99.90
20376;DHT22;10347;51.828;6.466;2024-01-15T12:34:45;4.00;99.90
20376;DHT22;10347;51.828;6.466;2024-01-15T12:37:11;4.00;99.90
20376;DHT22;10347;51.828;6.466;2024-01-15T12:39:37;4.00;99.90
20376;DHT22;10347;51.828;6.466;2024-01-15T12:42:03;4.10;99.90
20376;DHT22;10347;51.828;6.466;2024-01-15T12:44:29;4.10;99.90
20376;DHT22;10347;51.828;6.466;2024-01-15T12:46:55;4.10;99.90
20376;DHT22;10347;51.828;6.466;2024-01-15T12:49:21;4.20;99.90
20376;DHT22;10347;51.828;6.466;2024-01-15T12:51:56;4.20;99.90
20376;DHT22;10347;51.828;6.466;2024-01-15T12:54:22;4.20;99.90
20376;DHT22;10347;51.828;6.466;2024-01-15T12:56:49;4.20;99.90
20376;DHT22;10347;51.828;6.466;2024-01-15T12:59:15;4.20;99.90
20376;DHT22;10347;51.828;6.466;2024-01-15T13:01:40;4.20;99.90
20376;DHT22;10347;51.828;6.466;2024-01-15T13:04:07;4.20;99.90
20376;DHT22;10347;51.828;6.466;2024-01-15T13:06:37;4.20;99.90
20376;DHT22;10347;51.828;6.466;2024-01-15T13:09:03;4.20;99.90
20376;DHT22;10347;51.828;6.466;2024-01-15T13:11:32;4.20;99.90
20376;DHT22;10347;51.828;6.466;2024-01-15T13:13:58;4.20;99.90
20376;DHT22;10347;51.828;6.466;2024-01-15T13:16:23;4.20;99.90
20376;DHT22;10347;51.828;6.466;2024-01-15T13:18:52;4.20;99.90
20376;DHT22;10347;51.828;6.466;2024-01-15T13:21:18;4.10;99.90
20376;DHT22;10347;51.828;6.466;2024-01-15T13:23:43;4.10;99.90
20376;DHT22;10347;51.828;6.466;2024-01-15T13:26:09;4.00;99.90
20376;DHT22;10347;51.828;6.466;2024-01-15T13:28:34;3.90;99.90
20376;DHT22;10347;51.828;6.466;2024-01-15T13:31:00;3.90;99.90
20376;DHT22;10347;51.828;6.466;2024-01-15T13:33:26;3.80;99.90
20376;DHT22;10347;51.828;6.466;2024-01-15T13:35:51;3.90;99.90
20376;DHT22;10347;51.828;6.466;2024-01-15T13:38:17;3.90;99.90
20376;DHT22;10347;51.828;6.466;2024-01-15T13:40:43;3.90;99.90
20376;DHT22;10347;51.828;6.466;2024-01-15T13:43:11;3.90;99.90
20376;DHT22;10347;51.828;6.466;2024-01-15T13:45:37;3.90;99.90
20376;DHT22;10347;51.828;6.466;2024-01-15T13:48:03;4.00;99.90
20376;DHT22;10347;51.828;6.466;2024-01-15T13:50:31;3.90;99.90
20376;DHT22;10347;51.828;6.466;2024-01-15T13:52:57;3.90;99.90
20376;DHT22;10347;51.828;6.466;2024-01-15T13:55:22;4.00;99.90
20376;DHT22;10347;51.828;6.466;2024-01-15T13:57:48;4.00;99.90
20376;DHT22;10347;51.828;6.466;2024-01-15T14:00:14;4.00;99.90
20376;DHT22;10347;51.828;6.466;2024-01-15T14:02:44;4.10;99.90
20376;DHT22;10347;51.828;6.466;2024-01-15T14:05:09;4.10;99.90
20376;DHT22;10347;51.828;6.466;2024-01-15T14:07:38;4.20;99.90
20376;DHT22;10347;51.828;6.466;2024-01-15T14:10:05;4.20;99.90
20376;DHT22;10347;51.828;6.466;2024-01-15T14:12:31;4.20;99.90
20376;DHT22;10347;51.828;6.466;2024-01-15T14:14:57;4.20;99.90
20376;DHT22;10347;51.828;6.466;2024-01-15T14:17:22;4.20;99.90
20376;DHT22;10347;51.828;6.466;2024-01-15T14:19:48;4.10;99.90
20376;DHT22;10347;51.828;6.466;2024-01-15T14:22:13;4.10;99.90
20376;DHT22;10347;51.828;6.466;2024-01-15T14:24:39;4.00;99.90
20376;DHT22;10347;51.828;6.466;2024-01-15T14:27:04;4.00;99.90
20376;DHT22;10347;51.828;6.466;2024-01-15T14:29:32;4.00;99.90
20376;DHT22;10347;51.828;6.466;2024-01-15T14:31:58;4.00;99.90
20376;DHT22;10347;51.828;6.466;2024-01-15T14:34:25;3.90;99.90
20376;DHT22;10347;51.828;6.466;2024-01-15T14:36:51;3.90;99.90
20376;DHT22;10347;51.828;6.466;2024-01-15T14:39:23;3.90;99.90
20376;DHT22;10347;51.828;6.466;2024-01-15T14:41:49;3.90;99.90
20376;DHT22;10347;51.828;6.466;2024-01-15T14:44:14;3.90;99.90
20376;DHT22;10347;51.828;6.466;2024-01-15T14:46:40;3.90;99.90
20376;DHT22;10347;51.828;6.466;2024-01-15T14:49:06;3.90;99.90
20376;DHT22;10347;51.828;6.466;2024-01-15T14:51:31;3.90;99.90
20376;DHT22;10347;51.828;6.466;2024-01-15T14:53:57;3.90;99.90
20376;DHT22;10347;51.828;6.466;2024-01-15T14:56:24;3.90;99.90
20376;DHT22;10347;51.828;6.466;2024-01-15T14:58:50;3.90;99.90
20376;DHT22;10347;51.828;6.466;2024-01-15T15:01:16;3.90;99.90
20376;DHT22;10347;51.828;6.466;2024-01-15T15:03:41;3.80;99.90
20376;DHT22;10347;51.828;6.466;2024-01-15T15:06:07;3.80;99.90
20376;DHT22;10347;51.828;6.466;2024-01-15T15:08:33;3.80;99.90
20376;DHT22;10347;51.828;6.466;2024-01-15T15:11:00;3.80;99.90
20376;DHT22;10347;51.828;6.466;2024-01-15T15:13:26;3.80;99.90
20376;DHT22;10347;51.828;6.466;2024-01-15T15:15:52;3.90;99.90
20376;DHT22;10347;51.828;6.466;2024-01-15T15:18:19;3.80;99.90
20376;DHT22;10347;51.828;6.466;2024-01-15T15:20:45;3.80;99.90
20376;DHT22;10347;51.828;6.466;2024-01-15T15:23:10;3.80;99.90
20376;DHT22;10347;51.828;6.466;2024-01-15T15:25:36;3.70;99.90
20376;DHT22;10347;51.828;6.466;2024-01-15T15:28:02;3.70;99.90
20376;DHT22;10347;51.828;6.466;2024-01-15T15:30:30;3.70;99.90
20376;DHT22;10347;51.828;6.466;2024-01-15T15:32:56;3.70;99.90
20376;DHT22;10347;51.828;6.466;2024-01-15T15:35:21;3.70;99.90
20376;DHT22;10347;51.828;6.466;2024-01-15T15:37:47;3.70;99.90
20376;DHT22;10347;51.828;6.466;2024-01-15T15:40:12;3.70;99.90
20376;DHT22;10347;51.828;6.466;2024-01-15T15:42:38;3.80;99.90
20376;DHT22;10347;51.828;6.466;2024-01-15T15:45:04;3.70;99.90
20376;DHT22;10347;51.828;6.466;2024-01-15T15:47:30;3.70;99.90
20376;DHT22;10347;51.828;6.466;2024-01-15T15:49:56;3.70;99.90
20376;DHT22;10347;51.828;6.466;2024-01-15T15:52:22;3.70;99.90
20376;DHT22;10347;51.828;6.466;2024-01-15T15:54:47;3.60;99.90